ZDV Airport - KDEN

Denver International

Live Information

KDEN 171353Z 25008KT 10SM FEW050 FEW090 SCT220 M08/M17 A2976 RMK AO2 SLP114 T10781167

The airport is in VFR flying conditions

Charts

Live Pilots

Departures
Callsign Pilot Name Aircraft Type Arrival Filed Cruise Altitude Ground Speed Flight State
CAN949 Frans van Zantbeek EHAM B738 PANC 34000 34037 458 Outside ZDV
FDX853 Bob Klemm KMIA H/B763/L KMEM 37000 36904 545 Outside ZDV
MTN2869 Tony Yonek KIAD B712/L KGPI 36000 23880 413 Outside ZDV
SWA1277 Francisco Ferreira SBGR B738 KOMA 35000 992 0 Outside ZDV
SWA713 Doug Wilson KHOU B738/L KHOU 35000 35034 455 Outside ZDV

Arrivals
Callsign Pilot Name Aircraft Type Departure Filed Cruise Altitude Ground Speed Flight State
AAL2 Craig Moulton KLPC A319/L KLAX 37000 32607 523 Outside ZDV
AAL202 Logan Laporte H/B763/L KSEA 35000 390 0 Outside ZDV
AAL203 Tim Both KJOT B738/L KSEA 37000 441 0 Outside ZDV
CAA1657 Josh Provo KCPR B752/G CYUL 34000 26362 344 Outside ZDV
DAL101 Jeff Miller KPHL A320 KDFW 34000 34039 373 Outside ZDV
FFT71 Mark van Wissen LSZH A319/L MMUN 36000 35797 415 Outside ZDV
NKS1 Michael Grimm KSEA A320 KLAS 35000 25887 448 Outside ZDV
NKS441 Jack A320/L KORD FL360 35925 387 Outside ZDV
PAY6433 Jason Wadsworth KROC B738/L KSEA 37000 36971 455 Outside ZDV
UAL003 Enrico Zaffiri - KORD T/B738/F KOMA FL280 5440 142 Arriving